sensor_id;sensor_type;location;lat;lon;timestamp;pressure;altitude;pressure_sealevel;temperature;humidity
61014;BME280;46899;47.542;19.082;2023-03-23T00:02:03;100345.53;;;5.54;100.00
61014;BME280;46899;47.542;19.082;2023-03-23T00:05:06;100359.41;;;5.47;100.00
61014;BME280;46899;47.542;19.082;2023-03-23T00:08:08;100352.56;;;5.44;100.00
61014;BME280;46899;47.542;19.082;2023-03-23T00:11:14;100351.78;;;5.39;100.00
61014;BME280;46899;47.542;19.082;2023-03-23T00:14:16;100347.53;;;5.35;100.00
61014;BME280;46899;47.542;19.082;2023-03-23T00:17:23;100352.69;;;5.37;100.00
61014;BME280;46899;47.542;19.082;2023-03-23T00:20:26;100350.19;;;5.31;100.00
61014;BME280;46899;47.542;19.082;2023-03-23T00:23:30;100339.88;;;5.31;100.00
61014;BME280;46899;47.542;19.082;2023-03-23T00:26:32;100344.16;;;5.30;100.00
61014;BME280;46899;47.542;19.082;2023-03-23T00:29:34;100335.63;;;5.27;100.00
61014;BME280;46899;47.542;19.082;2023-03-23T00:32:36;100335.66;;;5.24;100.00
61014;BME280;46899;47.542;19.082;2023-03-23T00:35:38;100336.56;;;5.21;100.00
61014;BME280;46899;47.542;19.082;2023-03-23T00:38:40;100338.34;;;5.16;100.00
61014;BME280;46899;47.542;19.082;2023-03-23T00:41:46;100334.06;;;5.15;100.00
61014;BME280;46899;47.542;19.082;2023-03-23T00:44:50;100338.31;;;5.19;100.00
61014;BME280;46899;47.542;19.082;2023-03-23T00:47:52;100340.03;;;5.19;100.00
61014;BME280;46899;47.542;19.082;2023-03-23T00:50:55;100333.28;;;5.09;100.00
61014;BME280;46899;47.542;19.082;2023-03-23T00:53:57;100328.25;;;5.01;100.00
61014;BME280;46899;47.542;19.082;2023-03-23T00:56:58;100330.00;;;4.99;100.00
61014;BME280;46899;47.542;19.082;2023-03-23T01:00:00;100332.66;;;4.92;100.00
61014;BME280;46899;47.542;19.082;2023-03-23T01:03:02;100335.25;;;4.90;100.00
61014;BME280;46899;47.542;19.082;2023-03-23T01:06:06;100325.84;;;4.86;100.00
61014;BME280;46899;47.542;19.082;2023-03-23T01:09:10;100324.03;;;4.93;100.00
61014;BME280;46899;47.542;19.082;2023-03-23T01:12:12;100325.00;;;4.87;100.00
61014;BME280;46899;47.542;19.082;2023-03-23T01:15:14;100321.63;;;4.82;100.00
61014;BME280;46899;47.542;19.082;2023-03-23T01:18:16;100324.19;;;4.82;100.00
61014;BME280;46899;47.542;19.082;2023-03-23T01:21:18;100329.38;;;4.79;100.00
61014;BME280;46899;47.542;19.082;2023-03-23T01:24:21;100319.19;;;4.70;100.00
61014;BME280;46899;47.542;19.082;2023-03-23T01:27:22;100321.84;;;4.64;100.00
61014;BME280;46899;47.542;19.082;2023-03-23T01:30:25;100319.25;;;4.62;100.00
61014;BME280;46899;47.542;19.082;2023-03-23T01:33:27;100316.72;;;4.61;100.00
61014;BME280;46899;47.542;19.082;2023-03-23T01:36:29;100321.87;;;4.61;100.00
61014;BME280;46899;47.542;19.082;2023-03-23T01:39:35;100321.03;;;4.59;100.00
61014;BME280;46899;47.542;19.082;2023-03-23T01:42:38;100314.13;;;4.61;100.00
61014;BME280;46899;47.542;19.082;2023-03-23T01:45:39;100313.25;;;4.62;100.00
61014;BME280;46899;47.542;19.082;2023-03-23T01:48:41;100312.47;;;4.55;100.00
61014;BME280;46899;47.542;19.082;2023-03-23T01:51:46;100309.94;;;4.54;100.00
61014;BME280;46899;47.542;19.082;2023-03-23T01:54:48;100312.56;;;4.48;100.00
61014;BME280;46899;47.542;19.082;2023-03-23T01:57:50;100310.06;;;4.42;100.00
61014;BME280;46899;47.542;19.082;2023-03-23T02:00:53;100300.66;;;4.38;100.00
61014;BME280;46899;47.542;19.082;2023-03-23T02:03:56;100308.44;;;4.33;100.00
61014;BME280;46899;47.542;19.082;2023-03-23T02:06:59;100310.16;;;4.33;100.00
61014;BME280;46899;47.542;19.082;2023-03-23T02:10:03;100311.91;;;4.29;100.00
61014;BME280;46899;47.542;19.082;2023-03-23T02:13:07;100303.34;;;4.27;100.00
61014;BME280;46899;47.542;19.082;2023-03-23T02:19:20;100307.66;;;4.25;100.00
61014;BME280;46899;47.542;19.082;2023-03-23T02:22:48;100308.53;;;4.23;100.00
61014;BME280;46899;47.542;19.082;2023-03-23T02:29:05;100311.19;;;4.15;100.00
61014;BME280;46899;47.542;19.082;2023-03-23T02:35:18;100321.44;;;4.20;100.00
61014;BME280;46899;47.542;19.082;2023-03-23T02:38:22;100316.34;;;4.17;100.00
61014;BME280;46899;47.542;19.082;2023-03-23T02:41:30;100319.66;;;4.25;100.00
61014;BME280;46899;47.542;19.082;2023-03-23T02:44:33;100327.44;;;4.20;100.00
61014;BME280;46899;47.542;19.082;2023-03-23T02:47:36;100325.78;;;4.14;100.00
61014;BME280;46899;47.542;19.082;2023-03-23T02:50:38;100327.50;;;4.12;100.00
61014;BME280;46899;47.542;19.082;2023-03-23T02:53:41;100325.00;;;4.09;100.00
61014;BME280;46899;47.542;19.082;2023-03-23T02:56:44;100323.31;;;4.04;100.00
61014;BME280;46899;47.542;19.082;2023-03-23T02:59:47;100321.63;;;4.01;100.00
61014;BME280;46899;47.542;19.082;2023-03-23T03:02:50;100331.06;;;4.02;100.00
61014;BME280;46899;47.542;19.082;2023-03-23T03:06:23;100329.38;;;4.00;100.00
61014;BME280;46899;47.542;19.082;2023-03-23T03:10:16;100322.53;;;3.97;100.00
61014;BME280;46899;47.542;19.082;2023-03-23T03:16:23;100322.56;;;3.91;100.00
61014;BME280;46899;47.542;19.082;2023-03-23T03:19:29;100322.56;;;3.91;100.00
61014;BME280;46899;47.542;19.082;2023-03-23T03:22:32;100331.16;;;3.90;100.00
61014;BME280;46899;47.542;19.082;2023-03-23T03:25:35;100332.91;;;3.88;100.00
61014;BME280;46899;47.542;19.082;2023-03-23T03:28:37;100323.44;;;3.90;100.00
61014;BME280;46899;47.542;19.082;2023-03-23T03:31:39;100326.88;;;3.89;100.00
61014;BME280;46899;47.542;19.082;2023-03-23T03:34:46;100326.06;;;3.86;100.00
61014;BME280;46899;47.542;19.082;2023-03-23T03:37:49;100334.63;;;3.85;100.00
61014;BME280;46899;47.542;19.082;2023-03-23T03:40:52;100333.81;;;3.81;100.00
61014;BME280;46899;47.542;19.082;2023-03-23T03:43:54;100336.41;;;3.78;100.00
61014;BME280;46899;47.542;19.082;2023-03-23T03:46:55;100333.00;;;3.73;100.00
61014;BME280;46899;47.542;19.082;2023-03-23T03:49:57;100335.56;;;3.73;100.00
61014;BME280;46899;47.542;19.082;2023-03-23T03:52:59;100340.75;;;3.72;100.00
61014;BME280;46899;47.542;19.082;2023-03-23T03:56:01;100345.87;;;3.70;100.00
61014;BME280;46899;47.542;19.082;2023-03-23T03:59:03;100346.72;;;3.77;100.00
61014;BME280;46899;47.542;19.082;2023-03-23T04:02:06;100353.59;;;3.73;100.00
61014;BME280;46899;47.542;19.082;2023-03-23T04:05:07;100345.87;;;3.70;100.00
61014;BME280;46899;47.542;19.082;2023-03-23T04:08:11;100351.06;;;3.66;100.00
61014;BME280;46899;47.542;19.082;2023-03-23T04:11:13;100345.94;;;3.64;100.00
61014;BME280;46899;47.542;19.082;2023-03-23T04:14:15;100353.66;;;3.64;100.00
61014;BME280;46899;47.542;19.082;2023-03-23T04:17:16;100357.94;;;3.67;100.00
61014;BME280;46899;47.542;19.082;2023-03-23T04:20:18;100360.53;;;3.62;100.00
61014;BME280;46899;47.542;19.082;2023-03-23T04:23:21;100355.41;;;3.56;100.00
61014;BME280;46899;47.542;19.082;2023-03-23T04:26:23;100361.44;;;3.54;100.00
61014;BME280;46899;47.542;19.082;2023-03-23T04:29:26;100358.03;;;3.53;100.00
61014;BME280;46899;47.542;19.082;2023-03-23T04:32:30;100357.16;;;3.56;100.00
61014;BME280;46899;47.542;19.082;2023-03-23T04:35:32;100352.84;;;3.56;100.00
61014;BME280;46899;47.542;19.082;2023-03-23T04:38:34;100352.84;;;3.59;100.00
61014;BME280;46899;47.542;19.082;2023-03-23T04:41:36;100352.81;;;3.62;100.00
61014;BME280;46899;47.542;19.082;2023-03-23T04:44:39;100348.53;;;3.63;100.00
61014;BME280;46899;47.542;19.082;2023-03-23T04:47:41;100357.94;;;3.64;100.00
61014;BME280;46899;47.542;19.082;2023-03-23T04:50:46;100363.97;;;3.61;100.00
61014;BME280;46899;47.542;19.082;2023-03-23T04:53:50;100365.69;;;3.62;100.00
61014;BME280;46899;47.542;19.082;2023-03-23T04:56:52;100360.50;;;3.64;100.00
61014;BME280;46899;47.542;19.082;2023-03-23T04:59:54;100358.78;;;3.67;100.00
61014;BME280;46899;47.542;19.082;2023-03-23T05:02:56;100358.72;;;3.73;100.00
61014;BME280;46899;47.542;19.082;2023-03-23T05:06:00;100364.69;;;3.81;100.00
61014;BME280;46899;47.542;19.082;2023-03-23T05:09:02;100358.63;;;3.88;100.00
61014;BME280;46899;47.542;19.082;2023-03-23T05:12:05;100363.69;;;3.97;100.00
61014;BME280;46899;47.542;19.082;2023-03-23T05:15:09;100367.03;;;4.05;100.00
61014;BME280;46899;47.542;19.082;2023-03-23T05:18:11;100369.53;;;4.18;100.00
61014;BME280;46899;47.542;19.082;2023-03-23T05:21:13;100368.56;;;4.28;100.00
61014;BME280;46899;47.542;19.082;2023-03-23T05:24:17;100366.72;;;4.42;100.00
61014;BME280;46899;47.542;19.082;2023-03-23T05:27:19;100367.38;;;4.60;100.00
61014;BME280;46899;47.542;19.082;2023-03-23T05:30:22;100368.06;;;4.77;100.00
61014;BME280;46899;47.542;19.082;2023-03-23T05:33:24;100361.81;;;4.97;100.00
61014;BME280;46899;47.542;19.082;2023-03-23T05:36:27;100371.75;;;5.27;100.00
61014;BME280;46899;47.542;19.082;2023-03-23T05:39:30;100360.25;;;5.50;100.00
61014;BME280;46899;47.542;19.082;2023-03-23T05:42:33;100353.94;;;5.68;100.00
61014;BME280;46899;47.542;19.082;2023-03-23T05:45:35;100351.06;;;5.89;100.00
61014;BME280;46899;47.542;19.082;2023-03-23T05:48:38;100350.75;;;6.09;100.00
61014;BME280;46899;47.542;19.082;2023-03-23T05:51:40;100353.72;;;6.34;100.00
61014;BME280;46899;47.542;19.082;2023-03-23T05:54:42;100349.06;;;6.54;100.00
61014;BME280;46899;47.542;19.082;2023-03-23T05:57:43;100347.50;;;6.89;100.00
61014;BME280;46899;47.542;19.082;2023-03-23T06:00:48;100349.78;;;9.95;100.00
61014;BME280;46899;47.542;19.082;2023-03-23T06:03:51;100353.88;;;14.73;69.84
61014;BME280;46899;47.542;19.082;2023-03-23T06:06:55;100356.06;;;17.79;52.51
61014;BME280;46899;47.542;19.082;2023-03-23T06:09:57;100354.06;;;19.73;43.95
61014;BME280;46899;47.542;19.082;2023-03-23T06:12:59;100352.03;;;21.80;38.56
61014;BME280;46899;47.542;19.082;2023-03-23T06:16:01;100353.91;;;23.15;35.29
61014;BME280;46899;47.542;19.082;2023-03-23T06:19:08;100365.75;;;24.58;32.24
61014;BME280;46899;47.542;19.082;2023-03-23T06:22:09;100365.56;;;24.97;30.07
61014;BME280;46899;47.542;19.082;2023-03-23T06:25:13;100351.34;;;26.33;28.97
61014;BME280;46899;47.542;19.082;2023-03-23T06:28:17;100357.66;;;26.32;27.80
61014;BME280;46899;47.542;19.082;2023-03-23T06:31:21;100351.47;;;26.49;27.26
61014;BME280;46899;47.542;19.082;2023-03-23T06:34:24;100353.09;;;26.24;27.18
61014;BME280;46899;47.542;19.082;2023-03-23T06:37:29;100346.28;;;25.50;28.09
61014;BME280;46899;47.542;19.082;2023-03-23T06:40:31;100346.03;;;22.42;32.22
61014;BME280;46899;47.542;19.082;2023-03-23T06:43:32;100347.53;;;22.03;33.26
61014;BME280;46899;47.542;19.082;2023-03-23T06:46:35;100349.88;;;23.70;30.27
61014;BME280;46899;47.542;19.082;2023-03-23T06:49:41;100353.97;;;24.89;29.09
61014;BME280;46899;47.542;19.082;2023-03-23T06:52:45;100359.91;;;24.54;29.10
61014;BME280;46899;47.542;19.082;2023-03-23T06:55:47;100350.59;;;23.72;29.53
61014;BME280;46899;47.542;19.082;2023-03-23T06:58:49;100355.72;;;21.13;34.10
61014;BME280;46899;47.542;19.082;2023-03-23T07:01:52;100359.09;;;19.76;36.40
61014;BME280;46899;47.542;19.082;2023-03-23T07:04:54;100360.94;;;19.99;36.68
61014;BME280;46899;47.542;19.082;2023-03-23T07:07:56;100357.06;;;20.39;35.73
61014;BME280;46899;47.542;19.082;2023-03-23T07:10:59;100361.91;;;20.09;36.57
61014;BME280;46899;47.542;19.082;2023-03-23T07:14:01;100357.38;;;20.11;36.51
61014;BME280;46899;47.542;19.082;2023-03-23T07:17:03;100370.50;;;20.93;35.16
61014;BME280;46899;47.542;19.082;2023-03-23T07:20:06;100365.16;;;22.77;32.03
61014;BME280;46899;47.542;19.082;2023-03-23T07:23:09;100370.97;;;24.11;29.69
61014;BME280;46899;47.542;19.082;2023-03-23T07:26:12;100371.31;;;24.74;28.68
61014;BME280;46899;47.542;19.082;2023-03-23T07:29:16;100375.19;;;23.34;31.00
61014;BME280;46899;47.542;19.082;2023-03-23T07:32:18;100376.41;;;24.48;28.88
61014;BME280;46899;47.542;19.082;2023-03-23T07:35:20;100377.69;;;24.44;28.98
61014;BME280;46899;47.542;19.082;2023-03-23T07:38:22;100378.00;;;23.02;30.62
61014;BME280;46899;47.542;19.082;2023-03-23T07:41:27;100377.03;;;23.34;30.71
61014;BME280;46899;47.542;19.082;2023-03-23T07:44:30;100382.34;;;23.34;30.43
61014;BME280;46899;47.542;19.082;2023-03-23T07:47:32;100392.19;;;24.88;28.56
61014;BME280;46899;47.542;19.082;2023-03-23T07:50:33;100391.06;;;25.91;26.77
61014;BME280;46899;47.542;19.082;2023-03-23T07:53:40;100397.06;;;25.02;27.87
61014;BME280;46899;47.542;19.082;2023-03-23T07:56:43;100392.13;;;23.73;30.03
61014;BME280;46899;47.542;19.082;2023-03-23T07:59:47;100383.22;;;23.13;30.68
61014;BME280;46899;47.542;19.082;2023-03-23T08:02:52;100385.66;;;22.23;31.97
61014;BME280;46899;47.542;19.082;2023-03-23T08:05:58;100388.22;;;23.07;31.01
61014;BME280;46899;47.542;19.082;2023-03-23T08:09:00;100389.03;;;22.25;32.16
61014;BME280;46899;47.542;19.082;2023-03-23T08:12:09;100379.31;;;22.67;31.77
61014;BME280;46899;47.542;19.082;2023-03-23T08:15:13;100386.06;;;23.22;30.90
61014;BME280;46899;47.542;19.082;2023-03-23T08:18:16;100390.94;;;22.55;31.64
61014;BME280;46899;47.542;19.082;2023-03-23T08:21:20;100388.12;;;22.04;32.53
61014;BME280;46899;47.542;19.082;2023-03-23T08:24:23;100389.78;;;21.18;34.06
61014;BME280;46899;47.542;19.082;2023-03-23T08:27:25;100393.22;;;20.96;34.71
61014;BME280;46899;47.542;19.082;2023-03-23T08:30:27;100396.22;;;20.91;34.62
61014;BME280;46899;47.542;19.082;2023-03-23T08:33:31;100397.75;;;20.72;35.26
61014;BME280;46899;47.542;19.082;2023-03-23T08:36:33;100385.56;;;20.23;36.22
61014;BME280;46899;47.542;19.082;2023-03-23T08:39:34;100396.75;;;21.63;33.96
61014;BME280;46899;47.542;19.082;2023-03-23T08:42:37;100384.06;;;23.14;31.24
61014;BME280;46899;47.542;19.082;2023-03-23T08:45:40;100383.47;;;23.71;29.65
61014;BME280;46899;47.542;19.082;2023-03-23T08:48:43;100398.53;;;23.00;30.70
61014;BME280;46899;47.542;19.082;2023-03-23T08:51:45;100392.50;;;23.49;30.25
61014;BME280;46899;47.542;19.082;2023-03-23T08:54:48;100394.78;;;22.82;31.18
61014;BME280;46899;47.542;19.082;2023-03-23T08:57:49;100391.53;;;21.72;32.24
61014;BME280;46899;47.542;19.082;2023-03-23T09:00:51;100384.66;;;20.70;34.34
61014;BME280;46899;47.542;19.082;2023-03-23T09:03:52;100377.09;;;20.42;35.27
61014;BME280;46899;47.542;19.082;2023-03-23T09:07:00;100377.84;;;19.73;35.86
61014;BME280;46899;47.542;19.082;2023-03-23T09:10:01;100374.84;;;19.03;37.46
61014;BME280;46899;47.542;19.082;2023-03-23T09:13:03;100373.28;;;19.26;36.94
61014;BME280;46899;47.542;19.082;2023-03-23T09:16:05;100370.50;;;19.28;36.88
61014;BME280;46899;47.542;19.082;2023-03-23T09:19:07;100366.41;;;19.11;37.40
61014;BME280;46899;47.542;19.082;2023-03-23T09:22:09;100370.53;;;19.15;37.88
61014;BME280;46899;47.542;19.082;2023-03-23T09:25:13;100365.87;;;19.19;37.98
61014;BME280;46899;47.542;19.082;2023-03-23T09:28:15;100368.12;;;18.99;38.22
61014;BME280;46899;47.542;19.082;2023-03-23T09:31:17;100359.16;;;19.02;38.57
61014;BME280;46899;47.542;19.082;2023-03-23T09:34:21;100353.16;;;19.00;38.83
61014;BME280;46899;47.542;19.082;2023-03-23T09:37:23;100351.22;;;18.89;39.23
61014;BME280;46899;47.542;19.082;2023-03-23T09:40:43;100357.44;;;19.39;38.47
61014;BME280;46899;47.542;19.082;2023-03-23T09:46:59;100358.50;;;19.96;37.13
61014;BME280;46899;47.542;19.082;2023-03-23T09:50:12;100349.34;;;19.89;37.78
61014;BME280;46899;47.542;19.082;2023-03-23T09:53:26;100348.41;;;20.49;36.64
61014;BME280;46899;47.542;19.082;2023-03-23T09:56:31;100350.34;;;20.58;36.45
61014;BME280;46899;47.542;19.082;2023-03-23T09:59:39;100354.00;;;20.79;36.66
61014;BME280;46899;47.542;19.082;2023-03-23T10:02:51;100347.78;;;20.91;36.10
61014;BME280;46899;47.542;19.082;2023-03-23T10:05:54;100344.91;;;21.27;36.05
61014;BME280;46899;47.542;19.082;2023-03-23T10:08:57;100339.09;;;21.44;35.28
61014;BME280;46899;47.542;19.082;2023-03-23T10:18:22;100332.78;;;21.78;34.68
61014;BME280;46899;47.542;19.082;2023-03-23T10:21:27;100329.84;;;21.39;35.21
61014;BME280;46899;47.542;19.082;2023-03-23T10:24:34;100321.25;;;21.68;35.07
61014;BME280;46899;47.542;19.082;2023-03-23T10:30:39;100311.78;;;21.98;34.58
61014;BME280;46899;47.542;19.082;2023-03-23T10:33:42;100294.47;;;21.83;34.64
61014;BME280;46899;47.542;19.082;2023-03-23T10:36:56;100297.50;;;21.67;35.04
61014;BME280;46899;47.542;19.082;2023-03-23T10:39:59;100303.88;;;21.33;35.87
61014;BME280;46899;47.542;19.082;2023-03-23T10:43:01;100301.63;;;21.71;35.01
61014;BME280;46899;47.542;19.082;2023-03-23T10:46:05;100295.38;;;21.61;35.25
61014;BME280;46899;47.542;19.082;2023-03-23T10:49:13;100296.66;;;21.77;35.46
61014;BME280;46899;47.542;19.082;2023-03-23T10:55:21;100298.09;;;20.94;36.32
61014;BME280;46899;47.542;19.082;2023-03-23T10:58:27;100281.34;;;21.49;35.71
61014;BME280;46899;47.542;19.082;2023-03-23T11:01:32;100288.09;;;21.74;35.27
61014;BME280;46899;47.542;19.082;2023-03-23T11:04:34;100289.50;;;21.57;35.10
61014;BME280;46899;47.542;19.082;2023-03-23T11:07:35;100290.03;;;21.83;34.88
61014;BME280;46899;47.542;19.082;2023-03-23T11:10:39;100291.22;;;21.36;35.56
61014;BME280;46899;47.542;19.082;2023-03-23T11:13:42;100282.56;;;21.34;35.72
61014;BME280;46899;47.542;19.082;2023-03-23T11:17:03;100282.47;;;21.36;35.24
61014;BME280;46899;47.542;19.082;2023-03-23T11:20:12;100271.50;;;21.72;35.09
61014;BME280;46899;47.542;19.082;2023-03-23T11:23:19;100258.84;;;21.75;34.74
61014;BME280;46899;47.542;19.082;2023-03-23T11:26:24;100255.03;;;22.41;33.53
61014;BME280;46899;47.542;19.082;2023-03-23T11:29:26;100250.69;;;22.40;33.77
61014;BME280;46899;47.542;19.082;2023-03-23T11:32:29;100261.88;;;22.44;33.48
61014;BME280;46899;47.542;19.082;2023-03-23T11:35:32;100269.66;;;22.15;33.15
61014;BME280;46899;47.542;19.082;2023-03-23T11:38:33;100279.25;;;21.96;33.37
61014;BME280;46899;47.542;19.082;2023-03-23T11:41:37;100265.38;;;22.03;33.13
61014;BME280;46899;47.542;19.082;2023-03-23T11:44:43;100272.16;;;21.96;33.08
61014;BME280;46899;47.542;19.082;2023-03-23T11:47:50;100262.97;;;22.00;33.30
61014;BME280;46899;47.542;19.082;2023-03-23T11:51:02;100262.97;;;21.68;33.52
61014;BME280;46899;47.542;19.082;2023-03-23T11:54:09;100254.47;;;21.54;33.61
61014;BME280;46899;47.542;19.082;2023-03-23T11:57:16;100249.88;;;21.02;34.43
61014;BME280;46899;47.542;19.082;2023-03-23T12:00:19;100242.41;;;21.18;35.21
61014;BME280;46899;47.542;19.082;2023-03-23T12:06:32;100231.75;;;21.72;33.57
61014;BME280;46899;47.542;19.082;2023-03-23T12:19:42;100215.59;;;21.54;33.77
61014;BME280;46899;47.542;19.082;2023-03-23T12:22:54;100207.47;;;21.67;33.60
61014;BME280;46899;47.542;19.082;2023-03-23T12:29:08;100192.34;;;21.58;33.44
61014;BME280;46899;47.542;19.082;2023-03-23T12:32:27;100197.69;;;21.78;33.61
61014;BME280;46899;47.542;19.082;2023-03-23T12:35:47;100195.09;;;21.88;33.48
61014;BME280;46899;47.542;19.082;2023-03-23T12:42:04;100187.72;;;21.71;33.38
61014;BME280;46899;47.542;19.082;2023-03-23T12:48:12;100184.56;;;21.98;33.45
61014;BME280;46899;47.542;19.082;2023-03-23T12:55:01;100180.16;;;21.66;33.63
61014;BME280;46899;47.542;19.082;2023-03-23T13:03:54;100174.38;;;22.14;33.22
61014;BME280;46899;47.542;19.082;2023-03-23T13:06:58;100168.34;;;22.12;33.18
61014;BME280;46899;47.542;19.082;2023-03-23T13:13:06;100170.56;;;21.86;33.45
61014;BME280;46899;47.542;19.082;2023-03-23T13:16:19;100166.75;;;22.00;33.54
61014;BME280;46899;47.542;19.082;2023-03-23T13:19:25;100181.03;;;21.88;33.39
61014;BME280;46899;47.542;19.082;2023-03-23T13:22:33;100174.09;;;21.75;33.64
61014;BME280;46899;47.542;19.082;2023-03-23T13:33:00;100161.78;;;21.74;33.80
61014;BME280;46899;47.542;19.082;2023-03-23T13:35:25;100164.53;;;22.05;33.33
61014;BME280;46899;47.542;19.082;2023-03-23T13:38:27;100155.16;;;21.80;33.42
61014;BME280;46899;47.542;19.082;2023-03-23T13:41:29;100150.25;;;21.96;33.36
61014;BME280;46899;47.542;19.082;2023-03-23T13:48:02;100146.22;;;21.81;33.44
61014;BME280;46899;47.542;19.082;2023-03-23T13:51:21;100143.28;;;21.95;33.39
61014;BME280;46899;47.542;19.082;2023-03-23T13:54:37;100133.22;;;21.89;33.32
61014;BME280;46899;47.542;19.082;2023-03-23T14:01:02;100134.44;;;21.85;33.67
61014;BME280;46899;47.542;19.082;2023-03-23T14:04:14;100127.97;;;21.78;33.93
61014;BME280;46899;47.542;19.082;2023-03-23T14:07:16;100126.03;;;21.28;34.67
61014;BME280;46899;47.542;19.082;2023-03-23T14:10:20;100124.91;;;21.41;34.34
61014;BME280;46899;47.542;19.082;2023-03-23T14:13:28;100124.00;;;21.31;34.44
61014;BME280;46899;47.542;19.082;2023-03-23T14:19:33;100119.75;;;21.08;35.08
61014;BME280;46899;47.542;19.082;2023-03-23T14:22:35;100118.00;;;20.86;36.07
61014;BME280;46899;47.542;19.082;2023-03-23T14:25:37;100123.16;;;20.88;35.82
61014;BME280;46899;47.542;19.082;2023-03-23T14:28:39;100120.50;;;20.88;36.40
61014;BME280;46899;47.542;19.082;2023-03-23T14:31:41;100113.50;;;20.98;35.75
61014;BME280;46899;47.542;19.082;2023-03-23T14:34:43;100118.50;;;21.23;35.17
61014;BME280;46899;47.542;19.082;2023-03-23T14:37:47;100110.31;;;21.15;35.39
61014;BME280;46899;47.542;19.082;2023-03-23T14:40:48;100113.34;;;21.10;35.30
61014;BME280;46899;47.542;19.082;2023-03-23T14:43:50;100112.44;;;21.32;35.50
61014;BME280;46899;47.542;19.082;2023-03-23T14:46:51;100112.25;;;21.45;35.75
61014;BME280;46899;47.542;19.082;2023-03-23T14:49:55;100106.56;;;21.29;35.46
61014;BME280;46899;47.542;19.082;2023-03-23T14:52:57;100117.31;;;21.16;35.44
61014;BME280;46899;47.542;19.082;2023-03-23T14:56:02;100110.72;;;20.99;35.56
61014;BME280;46899;47.542;19.082;2023-03-23T14:59:06;100106.09;;;20.81;35.99
61014;BME280;46899;47.542;19.082;2023-03-23T15:02:13;100108.03;;;20.79;36.06
61014;BME280;46899;47.542;19.082;2023-03-23T15:05:18;100111.16;;;20.73;36.05
61014;BME280;46899;47.542;19.082;2023-03-23T15:08:27;100107.78;;;20.71;36.04
61014;BME280;46899;47.542;19.082;2023-03-23T15:11:36;100109.34;;;20.73;36.04
61014;BME280;46899;47.542;19.082;2023-03-23T15:14:47;100106.09;;;20.81;35.96
61014;BME280;46899;47.542;19.082;2023-03-23T15:17:50;100111.41;;;20.70;36.42
61014;BME280;46899;47.542;19.082;2023-03-23T15:20:51;100107.06;;;20.69;36.66
61014;BME280;46899;47.542;19.082;2023-03-23T15:23:53;100110.22;;;20.52;36.91
61014;BME280;46899;47.542;19.082;2023-03-23T15:27:02;100115.53;;;20.29;37.62
61014;BME280;46899;47.542;19.082;2023-03-23T15:30:12;100117.00;;;20.22;37.49
61014;BME280;46899;47.542;19.082;2023-03-23T15:33:14;100120.56;;;20.10;37.67
61014;BME280;46899;47.542;19.082;2023-03-23T15:36:16;100110.12;;;20.09;37.85
61014;BME280;46899;47.542;19.082;2023-03-23T15:39:18;100118.41;;;20.15;38.73
61014;BME280;46899;47.542;19.082;2023-03-23T15:42:24;100099.91;;;20.04;37.97
61014;BME280;46899;47.542;19.082;2023-03-23T15:45:27;100099.19;;;20.13;37.91
61014;BME280;46899;47.542;19.082;2023-03-23T15:48:46;100105.19;;;20.15;37.93
61014;BME280;46899;47.542;19.082;2023-03-23T15:51:47;100100.00;;;20.03;38.03
61014;BME280;46899;47.542;19.082;2023-03-23T15:54:49;100106.00;;;19.94;38.18
61014;BME280;46899;47.542;19.082;2023-03-23T15:57:51;100103.38;;;19.83;38.72
61014;BME280;46899;47.542;19.082;2023-03-23T16:00:54;100109.69;;;19.69;39.03
61014;BME280;46899;47.542;19.082;2023-03-23T16:03:58;100111.81;;;19.53;39.28
61014;BME280;46899;47.542;19.082;2023-03-23T16:07:02;100104.66;;;19.31;39.48
61014;BME280;46899;47.542;19.082;2023-03-23T16:10:06;100109.16;;;19.18;39.86
61014;BME280;46899;47.542;19.082;2023-03-23T16:13:12;100107.53;;;19.04;39.95
61014;BME280;46899;47.542;19.082;2023-03-23T16:19:28;100108.19;;;18.72;40.91
61014;BME280;46899;47.542;19.082;2023-03-23T16:22:31;100107.38;;;18.59;41.44
61014;BME280;46899;47.542;19.082;2023-03-23T16:25:33;100114.78;;;18.54;41.65
61014;BME280;46899;47.542;19.082;2023-03-23T16:28:36;100110.69;;;18.37;41.98
61014;BME280;46899;47.542;19.082;2023-03-23T16:31:39;100111.13;;;18.31;42.29
61014;BME280;46899;47.542;19.082;2023-03-23T16:34:42;100120.41;;;18.24;42.51
61014;BME280;46899;47.542;19.082;2023-03-23T16:37:48;100127.88;;;18.05;43.22
61014;BME280;46899;47.542;19.082;2023-03-23T16:40:51;100126.09;;;17.93;43.40
61014;BME280;46899;47.542;19.082;2023-03-23T16:43:54;100121.16;;;17.75;43.75
61014;BME280;46899;47.542;19.082;2023-03-23T16:46:57;100122.09;;;17.74;43.76
61014;BME280;46899;47.542;19.082;2023-03-23T16:49:59;100125.56;;;17.62;44.17
61014;BME280;46899;47.542;19.082;2023-03-23T16:53:03;100129.66;;;17.66;44.19
61014;BME280;46899;47.542;19.082;2023-03-23T16:56:05;100128.19;;;17.62;44.31
61014;BME280;46899;47.542;19.082;2023-03-23T16:59:08;100133.62;;;17.47;44.77
61014;BME280;46899;47.542;19.082;2023-03-23T17:02:11;100133.56;;;17.22;45.67
61014;BME280;46899;47.542;19.082;2023-03-23T17:05:14;100140.28;;;16.99;46.39
61014;BME280;46899;47.542;19.082;2023-03-23T17:08:17;100142.84;;;16.86;46.66
61014;BME280;46899;47.542;19.082;2023-03-23T17:11:20;100137.41;;;16.63;47.63
61014;BME280;46899;47.542;19.082;2023-03-23T17:14:23;100138.84;;;16.81;47.30